createdAt,value
2019-02-18T00:00:57.878Z,55.50
2019-02-18T00:03:28.752Z,55.22
2019-02-18T00:05:59.927Z,55.04
2019-02-18T00:08:30.857Z,55.04
2019-02-18T00:11:01.692Z,55.56
2019-02-18T00:13:33.116Z,55.56
2019-02-18T00:16:04.246Z,56.80
2019-02-18T00:18:34.982Z,56.80
2019-02-18T00:21:06.444Z,56.96
2019-02-18T00:23:37.040Z,56.99
2019-02-18T00:26:07.895Z,57.30
2019-02-18T00:28:38.726Z,57.30
2019-02-18T00:31:09.573Z,56.97
2019-02-18T00:33:41.519Z,56.85
2019-02-18T00:36:12.083Z,56.67
2019-02-18T00:38:42.610Z,56.70
2019-02-18T00:41:13.378Z,56.59
2019-02-18T00:43:44.312Z,56.72
2019-02-18T00:46:15.003Z,56.45
2019-02-18T00:48:46.050Z,56.17
2019-02-18T00:51:16.972Z,56.07
2019-02-18T00:53:47.751Z,55.91
2019-02-18T00:56:18.621Z,55.61
2019-02-18T00:58:49.470Z,55.43
2019-02-18T01:01:20.407Z,55.36
2019-02-18T01:03:51.447Z,55.76
2019-02-18T01:06:23.139Z,55.76
2019-02-18T01:08:54.931Z,55.66
2019-02-18T01:11:25.617Z,55.94
2019-02-18T01:13:56.524Z,55.85
2019-02-18T01:16:27.747Z,55.96
2019-02-18T01:18:58.332Z,56.19
2019-02-18T01:21:29.452Z,56.16
2019-02-18T01:24:00.579Z,56.16
2019-02-18T01:26:31.220Z,55.89
2019-02-18T01:29:02.046Z,55.93
2019-02-18T01:31:33.921Z,56.29
2019-02-18T01:34:07.479Z,56.18
2019-02-18T01:36:38.376Z,56.47
2019-02-18T01:39:10.145Z,56.65
2019-02-18T01:41:41.961Z,57.08
2019-02-18T01:44:12.782Z,57.08
2019-02-18T01:46:43.635Z,57.56
2019-02-18T01:49:14.167Z,57.56
2019-02-18T01:51:44.783Z,58.05
2019-02-18T01:54:15.715Z,58.55
2019-02-18T01:56:46.923Z,58.55
2019-02-18T01:59:17.717Z,58.56
2019-02-18T02:01:48.509Z,58.73
2019-02-18T02:04:19.219Z,58.73
2019-02-18T02:06:50.273Z,58.78
2019-02-18T02:09:21.354Z,58.78
2019-02-18T02:11:52.406Z,58.83
2019-02-18T02:14:23.633Z,58.77
2019-02-18T02:16:54.661Z,58.90
2019-02-18T02:19:25.596Z,58.41
2019-02-18T02:21:56.437Z,58.41
2019-02-18T02:24:27.340Z,58.97
2019-02-18T02:26:58.378Z,58.95
2019-02-18T02:29:29.311Z,58.96
2019-02-18T02:31:59.797Z,58.98
2019-02-18T02:34:30.544Z,59.01
2019-02-18T02:37:01.479Z,59.04
2019-02-18T02:39:32.540Z,59.06
2019-02-18T02:42:03.296Z,59.02
2019-02-18T02:44:33.941Z,59.26
2019-02-18T02:47:04.617Z,59.51
2019-02-18T02:49:35.685Z,59.65
2019-02-18T02:52:07.565Z,60.01
2019-02-18T02:54:38.347Z,60.03
2019-02-18T02:57:09.365Z,60.08
2019-02-18T02:59:39.929Z,60.16
2019-02-18T03:02:10.757Z,60.33
2019-02-18T03:04:41.847Z,60.19
2019-02-18T03:07:12.403Z,60.44
2019-02-18T03:09:43.757Z,60.37
2019-02-18T03:12:17.775Z,60.36
2019-02-18T03:14:48.884Z,60.41
2019-02-18T03:17:22.035Z,60.33
2019-02-18T03:19:52.983Z,60.31
2019-02-18T03:22:23.486Z,60.33
2019-02-18T03:25:25.532Z,60.48
2019-02-18T03:28:09.175Z,60.46
2019-02-18T03:31:02.935Z,60.55
2019-02-18T03:33:46.435Z,60.75
2019-02-18T03:36:17.419Z,60.69
2019-02-18T03:38:48.541Z,60.69
2019-02-18T03:41:19.443Z,60.61
2019-02-18T03:43:50.330Z,60.43
2019-02-18T03:46:21.692Z,60.52
2019-02-18T03:48:52.203Z,60.29
2019-02-18T03:51:23.247Z,60.34
2019-02-18T03:53:54.279Z,60.12
2019-02-18T03:56:25.184Z,59.96
2019-02-18T03:58:55.999Z,59.64
2019-02-18T04:01:28.151Z,59.66
2019-02-18T04:03:59.292Z,59.54
2019-02-18T04:06:30.304Z,59.73
2019-02-18T04:09:01.234Z,59.56
2019-02-18T04:11:31.918Z,59.44
2019-02-18T04:14:02.572Z,59.27
2019-02-18T04:16:33.229Z,59.31
2019-02-18T04:19:04.225Z,59.21
2019-02-18T04:21:35.196Z,59.22
2019-02-18T04:24:06.181Z,59.31
2019-02-18T04:26:37.457Z,59.45
2019-02-18T04:29:09.998Z,59.10
2019-02-18T04:31:40.724Z,58.97
2019-02-18T04:34:13.104Z,59.01
2019-02-18T04:36:45.210Z,58.99
2019-02-18T04:39:16.212Z,58.99
2019-02-18T04:41:47.079Z,58.80
2019-02-18T04:44:19.072Z,58.97
2019-02-18T04:46:50.079Z,58.87
2019-02-18T04:49:21.042Z,58.67
2019-02-18T04:51:52.175Z,58.49
2019-02-18T04:54:22.779Z,58.49
2019-02-18T04:56:53.688Z,58.45
2019-02-18T04:59:24.451Z,58.42
2019-02-18T05:01:55.547Z,58.30
2019-02-18T05:04:27.902Z,58.25
2019-02-18T05:06:58.848Z,58.29
2019-02-18T05:09:30.703Z,58.32
2019-02-18T05:12:01.811Z,58.44
2019-02-18T05:14:32.850Z,58.47
2019-02-18T05:17:03.661Z,58.29
2019-02-18T05:19:34.775Z,58.44
2019-02-18T05:22:05.640Z,58.44
2019-02-18T05:24:36.376Z,58.48
2019-02-18T05:27:07.085Z,58.50
2019-02-18T05:29:38.013Z,58.42
2019-02-18T05:32:08.883Z,58.29
2019-02-18T05:34:39.801Z,58.20
2019-02-18T05:37:10.591Z,57.95
2019-02-18T05:39:41.318Z,57.95
2019-02-18T05:42:12.111Z,57.80
2019-02-18T05:44:43.246Z,57.76
2019-02-18T05:47:13.912Z,56.99
2019-02-18T05:49:45.364Z,56.50
2019-02-18T05:52:16.810Z,56.50
2019-02-18T05:54:47.658Z,56.32
2019-02-18T05:57:19.067Z,56.55
2019-02-18T05:59:49.984Z,56.34
2019-02-18T06:02:22.565Z,56.34
2019-02-18T06:04:53.341Z,55.32
2019-02-18T06:07:24.415Z,55.32
2019-02-18T06:09:55.121Z,54.59
2019-02-18T06:12:25.954Z,54.59
2019-02-18T06:14:56.845Z,54.80
2019-02-18T06:17:27.600Z,54.73
2019-02-18T06:19:58.366Z,54.44
2019-02-18T06:22:29.015Z,54.53
2019-02-18T06:25:00.015Z,53.91
2019-02-18T06:27:30.800Z,53.96
2019-02-18T06:30:01.371Z,53.72
2019-02-18T06:32:31.754Z,53.56
2019-02-18T06:35:02.391Z,53.81
2019-02-18T06:37:33.097Z,54.37
2019-02-18T06:40:03.902Z,54.35
2019-02-18T06:42:35.400Z,54.35
2019-02-18T06:45:30.867Z,54.26
2019-02-18T06:48:06.644Z,54.38
2019-02-18T06:50:37.302Z,54.38
2019-02-18T06:53:07.970Z,54.49
2019-02-18T06:55:38.692Z,54.12
2019-02-18T06:58:28.287Z,54.38
2019-02-18T07:01:06.606Z,54.26
2019-02-18T07:03:52.489Z,53.69
2019-02-18T07:06:55.582Z,53.29
2019-02-18T07:09:50.820Z,52.47
2019-02-18T07:12:24.915Z,53.21
2019-02-18T07:14:55.584Z,53.44
2019-02-18T07:17:26.908Z,53.01
2019-02-18T07:19:57.539Z,52.83
2019-02-18T07:22:28.796Z,52.06
2019-02-18T07:24:59.101Z,51.84
2019-02-18T07:27:31.127Z,51.56
2019-02-18T07:30:02.120Z,51.50
2019-02-18T07:32:32.490Z,50.94
2019-02-18T07:35:03.208Z,50.94
2019-02-18T07:37:34.010Z,50.49
2019-02-18T07:40:05.188Z,49.82
2019-02-18T07:42:35.993Z,49.59
2019-02-18T07:45:06.780Z,48.83
2019-02-18T07:47:38.150Z,48.33
2019-02-18T07:50:19.874Z,47.91
2019-02-18T07:52:41.960Z,47.72
2019-02-18T07:55:12.639Z,47.50
2019-02-18T07:57:43.350Z,47.12
2019-02-18T08:00:15.314Z,46.41
2019-02-18T08:02:45.762Z,46.42
2019-02-18T08:05:15.958Z,46.51
2019-02-18T08:07:46.389Z,45.47
2019-02-18T08:10:16.872Z,44.82
2019-02-18T08:12:47.245Z,44.78
2019-02-18T08:15:17.674Z,44.97
2019-02-18T08:17:55.186Z,45.07
2019-02-18T08:20:26.581Z,43.43
2019-02-18T08:22:57.161Z,42.82
2019-02-18T08:25:27.782Z,43.63
2019-02-18T08:27:58.179Z,44.27
2019-02-18T08:30:28.610Z,42.72
2019-02-18T08:32:59.226Z,42.29
2019-02-18T08:35:30.372Z,42.59
2019-02-18T08:38:01.250Z,44.27
2019-02-18T08:40:32.807Z,44.85
2019-02-18T08:43:03.732Z,47.56
2019-02-18T08:45:34.522Z,47.30
2019-02-18T08:48:06.922Z,47.26
2019-02-18T08:50:37.398Z,47.30
2019-02-18T08:53:08.211Z,48.00
2019-02-18T08:55:38.775Z,47.32
2019-02-18T08:58:09.227Z,46.82
2019-02-18T09:00:39.959Z,47.29
2019-02-18T09:03:10.635Z,48.16
2019-02-18T09:05:41.276Z,48.18
2019-02-18T09:10:53.113Z,46.99
2019-02-18T09:13:23.669Z,46.50
2019-02-18T09:16:00.163Z,45.90
2019-02-18T09:18:26.689Z,47.27
2019-02-18T09:20:57.379Z,47.68
2019-02-18T09:23:46.925Z,47.47
2019-02-18T09:26:18.085Z,47.07
2019-02-18T09:28:49.767Z,46.60
2019-02-18T09:31:25.969Z,46.23
2019-02-18T09:33:56.790Z,45.90
2019-02-18T09:36:27.347Z,46.63
2019-02-18T09:39:01.595Z,45.27
2019-02-18T09:41:33.099Z,44.84
2019-02-18T09:44:03.990Z,44.04
2019-02-18T09:46:34.803Z,44.71
2019-02-18T09:49:05.248Z,44.12
2019-02-18T09:51:35.880Z,44.88
2019-02-18T09:54:06.440Z,44.65
2019-02-18T09:56:37.215Z,44.39
2019-02-18T09:59:07.839Z,43.46
2019-02-18T10:01:39.042Z,42.96
2019-02-18T10:04:09.864Z,42.43
2019-02-18T10:06:40.322Z,42.57
2019-02-18T10:09:11.547Z,42.83
2019-02-18T10:11:41.918Z,43.41
2019-02-18T10:14:12.506Z,43.29
2019-02-18T10:16:43.017Z,42.80
2019-02-18T10:19:14.604Z,42.98
2019-02-18T10:21:44.966Z,42.56
2019-02-18T10:24:17.949Z,43.29
2019-02-18T10:26:48.504Z,43.59
2019-02-18T10:29:19.115Z,42.33
2019-02-18T10:31:50.843Z,43.30
2019-02-18T10:34:22.563Z,43.27
2019-02-18T10:36:53.170Z,43.16
2019-02-18T10:39:24.172Z,42.93
2019-02-18T10:41:55.233Z,41.80
2019-02-18T10:44:25.811Z,42.20
2019-02-18T10:46:56.263Z,42.24
2019-02-18T10:49:26.562Z,41.03
2019-02-18T10:51:57.391Z,41.49
2019-02-18T10:54:27.924Z,42.21
2019-02-18T10:57:00.654Z,42.13
2019-02-18T10:59:31.081Z,42.35
2019-02-18T11:02:04.575Z,43.37
2019-02-18T11:04:36.695Z,42.43
2019-02-18T11:07:06.990Z,42.47
2019-02-18T11:09:40.113Z,42.50
2019-02-18T11:12:10.490Z,41.41
2019-02-18T11:14:40.761Z,40.96
2019-02-18T11:17:11.523Z,39.13
2019-02-18T11:19:42.391Z,38.56
2019-02-18T11:22:13.060Z,38.58
2019-02-18T11:24:44.629Z,38.96
2019-02-18T11:27:15.652Z,38.97
2019-02-18T11:29:46.476Z,39.67
2019-02-18T11:32:17.027Z,40.74
2019-02-18T11:34:47.691Z,42.62
2019-02-18T11:37:18.857Z,42.92
2019-02-18T11:39:49.892Z,43.24
2019-02-18T11:42:20.441Z,43.94
2019-02-18T11:44:51.068Z,43.38
2019-02-18T11:47:21.982Z,43.32
2019-02-18T11:49:55.215Z,42.40
2019-02-18T11:52:25.028Z,42.06
2019-02-18T11:54:56.078Z,41.24
2019-02-18T11:57:26.744Z,41.16
2019-02-18T11:59:57.358Z,40.56
2019-02-18T12:02:29.077Z,40.55
2019-02-18T12:05:00.521Z,40.32
2019-02-18T12:07:31.053Z,40.36
2019-02-18T12:10:01.585Z,40.36
2019-02-18T12:12:32.370Z,40.88
2019-02-18T12:15:03.236Z,41.15
2019-02-18T12:17:33.947Z,41.46
2019-02-18T12:20:04.618Z,41.55
2019-02-18T12:22:35.139Z,41.63
2019-02-18T12:25:05.739Z,41.72
2019-02-18T12:27:36.311Z,41.58
2019-02-18T12:30:07.722Z,42.21
2019-02-18T12:32:38.378Z,42.24
2019-02-18T12:35:09.481Z,43.14
2019-02-18T12:37:41.657Z,43.24
2019-02-18T12:40:12.478Z,42.90
2019-02-18T12:42:43.049Z,43.07
2019-02-18T12:45:13.808Z,43.02
2019-02-18T12:47:44.565Z,42.84
2019-02-18T12:50:15.261Z,42.89
2019-02-18T12:52:45.778Z,42.79
2019-02-18T12:55:16.991Z,43.29
2019-02-18T12:57:47.727Z,43.28
2019-02-18T13:00:18.559Z,43.16
2019-02-18T13:02:49.425Z,42.95
2019-02-18T13:05:20.020Z,42.99
2019-02-18T13:07:50.546Z,41.76
2019-02-18T13:10:21.039Z,41.37
2019-02-18T13:12:51.763Z,42.39
2019-02-18T13:15:22.410Z,42.38
2019-02-18T13:17:53.164Z,42.72
2019-02-18T13:20:24.236Z,43.17
2019-02-18T13:22:54.666Z,42.99
2019-02-18T13:25:26.708Z,42.73
2019-02-18T13:27:57.179Z,43.01
2019-02-18T13:30:27.539Z,43.03
2019-02-18T13:32:59.315Z,42.09
2019-02-18T13:35:30.132Z,42.37
2019-02-18T13:38:00.567Z,42.62
2019-02-18T13:40:32.982Z,43.36
2019-02-18T13:43:04.858Z,43.58
2019-02-18T13:45:37.834Z,43.61
2019-02-18T13:48:08.319Z,43.08
2019-02-18T13:50:40.002Z,43.35
2019-02-18T13:53:12.168Z,43.08
2019-02-18T13:55:42.766Z,42.84
2019-02-18T13:58:13.454Z,42.95
2019-02-18T14:00:44.198Z,43.05
2019-02-18T14:03:16.098Z,42.83
2019-02-18T14:05:47.266Z,42.69
2019-02-18T14:08:17.859Z,42.61
2019-02-18T14:10:48.516Z,42.72
2019-02-18T14:13:22.514Z,42.79
2019-02-18T14:15:53.725Z,43.19
2019-02-18T14:18:24.328Z,43.27
2019-02-18T14:20:55.004Z,43.34
2019-02-18T14:23:26.171Z,43.60
2019-02-18T14:25:57.106Z,44.98
2019-02-18T14:28:29.859Z,45.50
2019-02-18T14:31:00.797Z,45.93
2019-02-18T14:33:33.527Z,47.42
2019-02-18T14:36:04.724Z,49.45
2019-02-18T14:38:35.410Z,51.05
2019-02-18T14:41:05.908Z,51.58
2019-02-18T14:43:36.851Z,52.49
2019-02-18T14:46:07.279Z,52.53
2019-02-18T14:48:38.130Z,52.98
2019-02-18T14:51:08.540Z,54.01
2019-02-18T14:53:38.987Z,54.79
2019-02-18T14:56:11.363Z,55.72
2019-02-18T14:58:41.863Z,59.43
2019-02-18T15:01:13.574Z,59.43
2019-02-18T15:03:43.843Z,60.15
2019-02-18T15:06:14.174Z,61.19
2019-02-18T15:08:44.581Z,61.19
2019-02-18T15:11:15.130Z,61.47
2019-02-18T15:13:45.539Z,61.88
2019-02-18T15:16:16.358Z,62.21
2019-02-18T15:18:46.840Z,62.56
2019-02-18T15:21:17.800Z,62.79
2019-02-18T15:23:48.953Z,62.79
2019-02-18T15:26:19.334Z,63.14
2019-02-18T15:28:49.855Z,63.47
2019-02-18T15:31:21.072Z,63.57
2019-02-18T15:33:51.523Z,64.20
2019-02-18T15:36:22.235Z,64.42
2019-02-18T15:38:52.870Z,64.74
2019-02-18T15:41:23.224Z,64.94
2019-02-18T15:43:53.655Z,64.94
2019-02-18T15:46:24.279Z,64.98
2019-02-18T15:48:54.950Z,65.92
2019-02-18T15:51:25.591Z,66.16
2019-02-18T15:54:00.186Z,66.45
2019-02-18T15:56:30.734Z,66.94
2019-02-18T15:59:01.161Z,67.38
2019-02-18T16:01:31.755Z,67.42
2019-02-18T16:04:03.052Z,67.70
2019-02-18T16:06:33.961Z,67.73
2019-02-18T16:09:05.863Z,67.75
2019-02-18T16:11:36.352Z,68.04
2019-02-18T16:14:07.224Z,68.16
2019-02-18T16:16:38.341Z,68.49
2019-02-18T16:19:08.875Z,68.69
2019-02-18T16:21:39.208Z,68.75
2019-02-18T16:24:19.432Z,69.09
2019-02-18T16:26:41.851Z,69.31
2019-02-18T16:29:12.349Z,69.56
2019-02-18T16:31:43.168Z,69.75
2019-02-18T16:34:13.899Z,70.26
2019-02-18T16:36:44.299Z,70.58
2019-02-18T16:39:14.664Z,70.58
2019-02-18T16:41:45.047Z,70.63
2019-02-18T16:44:15.885Z,70.55
2019-02-18T16:46:46.472Z,70.79
2019-02-18T16:49:18.626Z,70.70
2019-02-18T16:51:49.085Z,70.74
2019-02-18T16:54:20.003Z,70.64
2019-02-18T16:56:50.468Z,70.59
2019-02-18T16:59:20.866Z,70.72
2019-02-18T17:01:51.318Z,70.66
2019-02-18T17:04:21.855Z,70.65
2019-02-18T17:06:52.127Z,70.78
2019-02-18T17:09:24.076Z,70.74
2019-02-18T17:11:54.648Z,71.09
2019-02-18T17:14:25.147Z,71.24
2019-02-18T17:16:56.069Z,71.11
2019-02-18T17:19:26.753Z,71.04
2019-02-18T17:21:57.371Z,70.91
2019-02-18T17:24:27.958Z,70.85
2019-02-18T17:26:58.421Z,70.88
2019-02-18T17:29:29.025Z,71.22
2019-02-18T17:32:00.055Z,71.37
2019-02-18T17:34:30.466Z,71.19
2019-02-18T17:37:01.261Z,71.44
2019-02-18T17:39:32.902Z,71.51
2019-02-18T17:42:04.884Z,71.69
2019-02-18T17:44:37.190Z,71.69
2019-02-18T17:47:07.798Z,71.78
2019-02-18T17:49:40.686Z,71.83
2019-02-18T17:52:12.875Z,72.12
2019-02-18T17:54:44.115Z,72.13
2019-02-18T17:57:16.339Z,71.86
2019-02-18T17:59:46.979Z,71.81
2019-02-18T18:02:18.776Z,71.14
2019-02-18T18:04:49.592Z,71.61
2019-02-18T18:07:21.236Z,71.62
2019-02-18T18:09:52.256Z,71.15
2019-02-18T18:12:25.297Z,71.22
2019-02-18T18:14:56.185Z,70.74
2019-02-18T18:17:26.634Z,70.96
2019-02-18T18:19:58.763Z,71.40
2019-02-18T18:22:31.740Z,71.55
2019-02-18T18:25:02.170Z,71.62
2019-02-18T18:27:33.298Z,71.04
2019-02-18T18:30:04.466Z,71.05
2019-02-18T18:32:35.164Z,71.25
2019-02-18T18:35:05.856Z,71.67
2019-02-18T18:37:36.478Z,71.48
2019-02-18T18:40:07.482Z,71.63
2019-02-18T18:42:38.290Z,71.99
2019-02-18T18:45:09.974Z,72.71
2019-02-18T18:47:43.077Z,73.04
2019-02-18T18:50:15.631Z,72.58
2019-02-18T18:52:46.990Z,72.68
2019-02-18T18:55:18.739Z,72.46
2019-02-18T18:57:50.459Z,72.27
2019-02-18T19:00:25.409Z,72.65
2019-02-18T19:02:57.469Z,72.86
2019-02-18T19:05:28.764Z,72.56
2019-02-18T19:08:01.336Z,72.56
2019-02-18T19:10:34.054Z,72.25
2019-02-18T19:13:06.813Z,72.61
2019-02-18T19:15:37.479Z,73.17
2019-02-18T19:18:18.827Z,73.12
2019-02-18T19:20:49.582Z,73.71
2019-02-18T19:23:20.669Z,73.62
2019-02-18T19:25:51.242Z,73.52
2019-02-18T19:28:21.993Z,73.60
2019-02-18T19:30:52.372Z,73.30
2019-02-18T19:33:23.040Z,73.38
2019-02-18T19:35:53.774Z,72.77
2019-02-18T19:38:24.170Z,72.80
2019-02-18T19:40:54.892Z,73.32
2019-02-18T19:43:25.636Z,72.91
2019-02-18T19:45:56.057Z,72.78
2019-02-18T19:48:26.482Z,73.05
2019-02-18T19:51:00.521Z,72.94
2019-02-18T19:53:31.132Z,72.81
2019-02-18T19:56:01.509Z,72.83
2019-02-18T19:58:32.560Z,73.01
2019-02-18T20:01:03.391Z,73.03
2019-02-18T20:03:33.929Z,73.28
2019-02-18T20:06:05.090Z,73.43
2019-02-18T20:08:37.207Z,73.68
2019-02-18T20:11:07.992Z,73.32
2019-02-18T20:13:38.595Z,73.83
2019-02-18T20:16:09.066Z,73.95
2019-02-18T20:18:40.337Z,73.96
2019-02-18T20:21:10.920Z,74.33
2019-02-18T20:23:43.133Z,74.36
2019-02-18T20:26:14.345Z,74.62
2019-02-18T20:28:44.753Z,74.83
2019-02-18T20:31:15.558Z,75.09
2019-02-18T20:33:48.188Z,75.05
2019-02-18T20:36:18.786Z,74.94
2019-02-18T20:38:51.513Z,75.08
2019-02-18T20:41:22.993Z,74.99
2019-02-18T20:43:53.726Z,75.05
2019-02-18T20:46:25.893Z,75.00
2019-02-18T20:48:56.727Z,75.09
2019-02-18T20:51:30.749Z,75.15
2019-02-18T20:54:01.444Z,75.07
2019-02-18T20:56:32.234Z,74.95
2019-02-18T20:59:02.824Z,74.97
2019-02-18T21:01:33.344Z,75.17
2019-02-18T21:04:04.392Z,75.36
2019-02-18T21:06:35.163Z,75.39
2019-02-18T21:09:06.792Z,76.01
2019-02-18T21:11:37.499Z,76.31
2019-02-18T21:14:15.941Z,76.36
2019-02-18T21:16:42.339Z,76.21
2019-02-18T21:19:13.346Z,76.18
2019-02-18T21:21:44.018Z,75.97
2019-02-18T21:24:14.747Z,76.11
2019-02-18T21:26:45.382Z,76.18
2019-02-18T21:29:17.234Z,76.16
2019-02-18T21:31:47.940Z,75.97
2019-02-18T21:34:18.698Z,76.20
2019-02-18T21:36:49.406Z,76.29
2019-02-18T21:39:20.289Z,76.24
2019-02-18T21:41:51.622Z,76.40
2019-02-18T21:44:25.451Z,76.79
2019-02-18T21:46:55.654Z,76.75
2019-02-18T21:49:26.738Z,76.71
2019-02-18T21:51:57.262Z,76.75
2019-02-18T21:54:27.868Z,76.97
2019-02-18T21:56:58.673Z,77.00
2019-02-18T21:59:29.379Z,76.51
2019-02-18T22:02:01.133Z,76.75
2019-02-18T22:04:31.717Z,77.05
2019-02-18T22:07:02.047Z,76.93
2019-02-18T22:09:32.480Z,76.94
2019-02-18T22:12:03.225Z,77.01
2019-02-18T22:14:35.745Z,76.96
2019-02-18T22:17:06.389Z,77.03
2019-02-18T22:19:37.197Z,77.51
2019-02-18T22:22:07.692Z,77.73
2019-02-18T22:24:38.519Z,77.80
2019-02-18T22:27:10.932Z,77.56
2019-02-18T22:29:41.391Z,77.43
2019-02-18T22:32:12.127Z,77.62
2019-02-18T22:34:42.643Z,77.62
2019-02-18T22:37:13.249Z,77.77
2019-02-18T22:39:43.994Z,78.23
2019-02-18T22:42:17.948Z,77.99
2019-02-18T22:44:48.607Z,78.20
2019-02-18T22:47:19.389Z,78.57
2019-02-18T22:49:50.148Z,78.64
2019-02-18T22:52:20.937Z,78.40
2019-02-18T22:54:54.532Z,78.42
2019-02-18T22:57:25.832Z,78.39
2019-02-18T22:59:56.701Z,78.23
2019-02-18T23:02:27.398Z,78.19
2019-02-18T23:04:58.017Z,78.43
2019-02-18T23:07:28.773Z,78.45
2019-02-18T23:09:59.539Z,78.43
2019-02-18T23:12:30.484Z,78.66
2019-02-18T23:15:01.132Z,78.90
2019-02-18T23:17:31.601Z,79.02
2019-02-18T23:20:02.305Z,79.07
2019-02-18T23:22:33.515Z,79.08
2019-02-18T23:25:04.215Z,78.95
2019-02-18T23:27:35.166Z,79.03
2019-02-18T23:30:05.912Z,79.34
2019-02-18T23:32:36.986Z,79.43
2019-02-18T23:35:08.077Z,79.64
2019-02-18T23:37:38.987Z,79.65
2019-02-18T23:40:09.879Z,79.61
2019-02-18T23:42:40.756Z,79.63
2019-02-18T23:45:11.754Z,79.69
2019-02-18T23:47:42.687Z,79.58
2019-02-18T23:50:13.221Z,79.68
2019-02-18T23:52:44.193Z,79.87
2019-02-18T23:55:16.663Z,80.12
2019-02-18T23:57:47.291Z,80.31
